Airfield :
LOGIN :

Register | Disclaimer

   EN    FR    IT 

 










Legend :    VFR   Marginal VFR   IFR   Intensive IFR   Very Intensive IFR
Visi :
Ceiling :
>= 8 km
>= 3000ft
5 to 8 km
1000 to 3000 ft
1500m to 5 km
500 to 1000 ft
800 to 1500m
200 to 500 ft
< 800m
< 200 ft
Symbols :   Thunderstorms  Fog  Heavy snow  Heavy precipitations  Wind > 20 kt
SIGMETs :     Misc.  Thunderstorms  Icing  Turbulence  Mountain Waves  Volcanic Ashes







- Airport Elevation : 49 ft
- IATA code : GLZ


EHGR - Gilze-Rijen Airbase

CURRENT METAR :
  • 230910Z AUTO 21018G28KT 180V260 9999 DZ OVC024 13/09 Q0997 WHT 20025G35KT 9999 FEW030 BKN050 TEMPO 21030G45KT FEW020CB BKN040

EXPIRED METARs :
  • 230855Z AUTO 21018G28KT 170V260 9999 -RA BKN029 OVC033 14/09 Q0997 BLU 20025G35KT 9999 FEW030 BKN050 TEMPO 21030G45KT FEW020CB BKN040
  • 230825Z AUTO 21022G38KT 160V250 9999 FEW023 BKN034 OVC039 15/08 Q0996 BLU 20025G35KT 9999 FEW030 BKN050 TEMPO 21030G40KT FEW020CB BKN040
  • 230755Z AUTO 20019KT 130V250 9999 -DZ FEW027 BKN037 BKN043 14/07 Q0996 BLU 20020G30KT 9999 FEW040 BKN080
  • 230735Z AUTO 20019KT 150V240 9999 -RA FEW020 FEW028CB SCT052 BKN079 14/07 Q0996 BLU 20020G30KT 9999 FEW040 BKN080
  • 230725Z AUTO 20021KT 150V240 9999 FEW030CB BKN038 BKN048 OVC054 14/06 Q0996 BLU
  • 230655Z AUTO 19020G30KT 150V240 9999 FEW044 OVC110 14/06 Q0995 BLU
  • 230625Z AUTO 19018KT 140V250 9999 FEW076 SCT083 BKN089 13/05 Q0995 BLU

TAF AMD TAF EHGR
Valid from the 23 at 06:00 until the 23 at 18:00 UTC


230902Z 2306/2318 19016G26KT CAVOK
BECMG 2306/2308 21018G35KT
TEMPO 2309/2316 22020G41KT 4500 SHRA FEW012 SCT015CB BKN022
BECMG 2314/2317 26010G20KT
No reported NOTAMs for that airfield.



MET'MAP, your aeronautical weather chart ! - Copyright ORBIFLY December 2007 - Disclaimer

ORBIFLY MET'MAP TEAM :

Programming & Development : Alexandra Zaïnal
Concept & Development : Baudouin d'Aumeries
Co-Development & Prog : Marc-Olivier Méhu
Technical & hardware support : Manuel Goepfert

Contact : metmap@orbifly.com




SOURCES & CREDITS :

   NOAA